Non classé.

Afficher tous les 2 résultats

METAR :

LFQA 122300Z AUTO 28003KT 250V320 CAVOK 16/09 Q1024


vue en direct sur l'aérodrome
mentions légales politique de confidentialité
Cochet Concept
cx